Time;durP1;ratioP1;P1;durP2;ratioP2;P2;SDS_P1;SDS_P2;PMS_P1;PMS_P2;Temp;Humidity;BMP_temperature;BMP_pressure;BME280_temperature;BME280_humidity;BME280_pressure;Samples;Min_cycle;Max_cycle;Signal;HPM_P1;HPM_P2
2023/11/19 00:00:08;;;;;;;28.83;5.47;;;;;;;12.83;100.00;100779.69;6083571;19;20033;-69
2023/11/19 00:02:16;;;;;;;23.05;5.13;;;;;;;12.79;100.00;100784.25;6084196;19;20021;-69
2023/11/19 00:04:21;;;;;;;27.25;5.07;;;;;;;12.81;100.00;100784.19;6083317;19;20007;-69
2023/11/19 00:06:26;;;;;;;24.45;5.85;;;;;;;12.82;100.00;100788.53;6083128;19;20014;-69
2023/11/19 00:08:31;;;;;;;29.88;5.32;;;;;;;12.82;100.00;100783.25;6086888;19;20078;-69
2023/11/19 00:10:36;;;;;;;24.17;4.57;;;;;;;12.77;100.00;100803.72;6085838;19;20035;-70
2023/11/19 00:12:46;;;;;;;28.13;4.47;;;;;;;12.76;100.00;100799.38;6085145;19;20309;-69
2023/11/19 00:14:51;;;;;;;29.02;6.45;;;;;;;12.71;100.00;100803.09;6084206;19;20246;-69
2023/11/19 00:16:56;;;;;;;25.48;5.32;;;;;;;12.71;100.00;100803.09;6083233;19;20054;-70
2023/11/19 00:19:01;;;;;;;31.30;6.00;;;;;;;12.69;100.00;100794.44;6088346;19;20183;-70
2023/11/19 00:21:04;;;;;;;32.13;6.47;;;;;;;12.69;100.00;100819.91;6087186;19;20113;-70
2023/11/19 00:23:09;;;;;;;21.52;5.00;;;;;;;12.66;100.00;100802.47;6085407;19;20664;-70
2023/11/19 00:25:14;;;;;;;26.50;5.65;;;;;;;12.65;100.00;100803.41;6086225;19;20361;-71
2023/11/19 00:27:16;;;;;;;20.80;4.25;;;;;;;12.64;100.00;100788.53;6083401;19;20325;-71
2023/11/19 00:29:24;;;;;;;29.98;5.55;;;;;;;12.68;100.00;100782.16;6085429;19;20018;-70
2023/11/19 00:31:31;;;;;;;27.75;5.68;;;;;;;12.60;100.00;100802.78;6085997;19;20085;-70
2023/11/19 00:33:37;;;;;;;31.83;5.43;;;;;;;12.56;100.00;100809.16;6084905;19;20518;-70
2023/11/19 00:35:53;;;;;;;21.90;5.32;;;;;;;12.55;100.00;100799.53;6088501;19;20574;-70
2023/11/19 00:37:58;;;;;;;27.80;4.88;;;;;;;12.54;100.00;100799.63;6092830;19;20062;-71
2023/11/19 00:40:05;;;;;;;23.15;5.75;;;;;;;12.56;100.00;100803.00;6092081;19;20471;-70
2023/11/19 00:42:10;;;;;;;30.55;5.50;;;;;;;12.52;100.00;100802.31;6089719;19;20379;-71
2023/11/19 00:44:15;;;;;;;29.05;5.40;;;;;;;12.51;100.00;100790.91;6090125;19;20002;-70
2023/11/19 00:46:23;;;;;;;27.40;6.22;;;;;;;12.48;100.00;100785.81;6088982;19;20011;-70
2023/11/19 00:48:28;;;;;;;31.33;6.53;;;;;;;12.45;100.00;100779.81;6091727;19;20022;-71
2023/11/19 00:50:33;;;;;;;28.42;6.00;;;;;;;12.44;100.00;100784.25;6091592;19;20007;-71
2023/11/19 00:52:42;;;;;;;41.00;5.25;;;;;;;12.44;100.00;100773.69;6092489;19;20002;-70
2023/11/19 00:54:47;;;;;;;28.67;5.20;;;;;;;12.48;100.00;100763.84;6088892;19;20010;-70
2023/11/19 00:56:52;;;;;;;35.25;5.78;;;;;;;12.44;100.00;100776.34;6084379;19;20101;-70
2023/11/19 00:58:57;;;;;;;42.20;6.68;;;;;;;12.42;100.00;100779.97;6088765;19;20006;-74
2023/11/19 01:01:02;;;;;;;33.47;5.32;;;;;;;12.45;100.00;100769.28;6090696;19;20041;-72
2023/11/19 01:03:09;;;;;;;29.33;6.03;;;;;;;12.42;100.00;100769.44;6088735;19;20014;-73
2023/11/19 01:05:16;;;;;;;27.75;5.50;;;;;;;12.35;100.00;100762.75;6090337;19;20010;-73
2023/11/19 01:07:21;;;;;;;26.60;6.65;;;;;;;12.35;100.00;100755.72;6088135;19;20546;-70
2023/11/19 01:09:26;;;;;;;25.10;5.93;;;;;;;12.36;100.00;100741.59;6087577;19;20094;-71
2023/11/19 01:11:32;;;;;;;33.13;7.38;;;;;;;12.32;100.00;100750.56;6086560;19;20023;-71
2023/11/19 01:13:37;;;;;;;38.38;6.90;;;;;;;12.28;100.00;100755.16;6087153;19;20041;-71
2023/11/19 01:15:42;;;;;;;26.42;4.95;;;;;;;12.29;100.00;100763.91;6086076;19;20015;-72
2023/11/19 01:17:47;;;;;;;30.85;7.88;;;;;;;12.26;100.00;100764.91;6085957;19;20017;-71
2023/11/19 01:19:57;;;;;;;30.65;4.90;;;;;;;12.24;100.00;100750.97;6084683;19;20015;-70
2023/11/19 01:22:05;;;;;;;33.05;5.50;;;;;;;12.21;100.00;100759.00;6086299;19;20010;-70
2023/11/19 01:24:13;;;;;;;41.83;7.10;;;;;;;12.18;100.00;100750.41;6087766;19;20007;-70
2023/11/19 01:26:18;;;;;;;29.90;5.13;;;;;;;12.12;100.00;100759.47;6087291;19;20125;-70
2023/11/19 01:28:23;;;;;;;29.50;6.30;;;;;;;12.14;100.00;100754.09;6087809;19;20014;-70
2023/11/19 01:30:28;;;;;;;30.50;6.05;;;;;;;12.09;100.00;100759.63;6088155;19;20582;-70
2023/11/19 01:32:36;;;;;;;30.42;5.20;;;;;;;12.02;100.00;100760.81;6085066;19;20041;-70
2023/11/19 01:34:39;;;;;;;21.65;5.68;;;;;;;12.00;100.00;100752.13;6087094;19;20026;-71
2023/11/19 01:36:46;;;;;;;44.15;5.82;;;;;;;12.02;100.00;100748.50;6083170;19;20017;-69
2023/11/19 01:38:51;;;;;;;28.80;5.70;;;;;;;12.02;100.00;100760.81;6085158;19;20479;-69
2023/11/19 01:40:59;;;;;;;33.33;6.68;;;;;;;11.98;100.00;100754.88;6087837;19;20565;-70
2023/11/19 01:43:04;;;;;;;35.40;6.43;;;;;;;11.92;100.00;100757.78;6086661;19;20014;-70
2023/11/19 01:45:08;;;;;;;39.25;6.25;;;;;;;11.92;100.00;100767.47;6088196;19;20746;-69
2023/11/19 01:47:14;;;;;;;22.45;5.32;;;;;;;11.95;100.00;100767.31;6084020;19;20226;-69
2023/11/19 01:49:21;;;;;;;31.90;6.43;;;;;;;11.90;100.00;100759.66;6088419;19;20010;-69
2023/11/19 01:51:27;;;;;;;28.42;6.10;;;;;;;11.89;100.00;100759.72;6087025;19;20033;-70
2023/11/19 01:53:36;;;;;;;26.10;5.07;;;;;;;11.95;100.00;100754.97;6082859;19;20166;-70
2023/11/19 01:55:41;;;;;;;28.55;5.10;;;;;;;11.92;100.00;100751.66;6086632;19;20551;-70
2023/11/19 01:57:46;;;;;;;33.53;6.10;;;;;;;11.89;100.00;100760.56;6088322;19;20045;-70
2023/11/19 01:59:53;;;;;;;39.08;5.85;;;;;;;11.87;100.00;100770.28;6085983;19;20010;-70
2023/11/19 02:02:02;;;;;;;29.63;6.75;;;;;;;11.83;100.00;100771.34;6088168;19;20027;-70
2023/11/19 02:04:09;;;;;;;32.67;7.13;;;;;;;11.78;100.00;100775.97;6091531;19;20014;-70
2023/11/19 02:06:13;;;;;;;29.33;7.30;;;;;;;11.84;100.00;100779.16;6089823;19;20030;-70
2023/11/19 02:08:18;;;;;;;26.85;5.30;;;;;;;11.80;100.00;100788.16;6087203;19;20013;-70
2023/11/19 02:10:25;;;;;;;34.55;7.25;;;;;;;11.74;100.00;100783.19;6089286;19;20032;-70
2023/11/19 02:12:33;;;;;;;36.40;6.40;;;;;;;11.78;100.00;100784.72;6086588;19;20030;-70
2023/11/19 02:14:38;;;;;;;36.58;7.03;;;;;;;11.70;100.00;100791.28;6085319;19;20721;-69
2023/11/19 02:16:41;;;;;;;35.50;6.32;;;;;;;11.66;100.00;100787.91;6089230;19;20021;-70
2023/11/19 02:18:46;;;;;;;35.28;5.80;;;;;;;11.71;100.00;100785.06;6089194;19;20011;-70
2023/11/19 02:20:49;;;;;;;31.55;6.47;;;;;;;11.65;100.00;100770.41;6086588;19;20014;-70
2023/11/19 02:22:55;;;;;;;30.27;6.93;;;;;;;11.61;100.00;100772.34;6088583;19;20796;-70
2023/11/19 02:25:10;;;;;;;37.13;6.22;;;;;;;11.66;100.00;100780.00;6087784;19;20014;-70
2023/11/19 02:27:33;;;;;;;30.55;7.65;;;;;;;11.55;100.00;100782.28;6087373;19;20786;-70
2023/11/19 02:29:42;;;;;;;31.35;6.25;;;;;;;11.56;100.00;100790.13;6089353;19;20530;-72
2023/11/19 02:31:47;;;;;;;29.35;6.15;;;;;;;11.55;100.00;100782.28;6088436;19;20538;-73
2023/11/19 02:33:52;;;;;;;32.13;6.18;;;;;;;11.54;100.00;100777.97;6087783;19;20014;-72
2023/11/19 02:36:01;;;;;;;27.85;5.97;;;;;;;11.50;100.00;100777.22;6084706;19;20010;-72
2023/11/19 02:38:07;;;;;;;42.55;7.53;;;;;;;11.47;100.00;100779.16;6083050;19;20101;-72
2023/11/19 02:40:09;;;;;;;40.80;7.57;;;;;;;11.47;100.00;100766.00;6086630;19;20006;-72
2023/11/19 02:42:14;;;;;;;;;;;;;;;11.42;100.00;100769.69;6088057;19;20037;-72
2023/11/19 02:44:19;;;;;;;33.85;5.88;;;;;;;11.47;100.00;100774.75;6086665;19;19934;-73
2023/11/19 02:46:27;;;;;;;40.95;6.65;;;;;;;11.43;100.00;100781.09;6086779;19;20085;-72
2023/11/19 02:48:35;;;;;;;33.10;9.63;;;;;;;11.37;100.00;100774.31;6087682;19;20753;-72
2023/11/19 02:50:41;;;;;;;37.22;5.55;;;;;;;11.31;100.00;100773.72;6082963;19;20019;-71
2023/11/19 02:52:48;;;;;;;39.65;5.80;;;;;;;11.37;100.00;100755.03;6084121;19;20467;-72
2023/11/19 02:54:54;;;;;;;40.17;8.48;;;;;;;11.30;100.00;100770.25;6086386;19;20332;-72
2023/11/19 02:56:59;;;;;;;42.00;8.50;;;;;;;11.30;100.00;100766.78;6077387;19;20017;-73
2023/11/19 02:59:08;;;;;;;34.45;6.72;;;;;;;11.22;100.00;100782.88;6086389;19;20067;-74
2023/11/19 03:01:22;;;;;;;42.90;6.72;;;;;;;11.25;100.00;100769.59;6084453;19;20011;-73
2023/11/19 03:03:38;;;;;;;37.38;6.60;;;;;;;11.23;100.00;100776.69;6085664;19;20450;-71
2023/11/19 03:05:44;;;;;;;36.50;8.82;;;;;;;11.24;100.00;100761.75;6085784;19;20045;-72
2023/11/19 03:07:49;;;;;;;30.17;5.97;;;;;;;11.26;100.00;100758.13;6079874;19;21995;-71
2023/11/19 03:09:54;;;;;;;26.90;6.75;;;;;;;11.24;100.00;100762.59;6084056;19;20019;-72
2023/11/19 03:11:59;;;;;;;35.78;5.60;;;;;;;11.23;100.00;100776.69;6083066;19;20075;-73
2023/11/19 03:14:05;;;;;;;27.27;5.65;;;;;;;11.26;100.00;100765.19;6084142;19;20026;-73
2023/11/19 03:16:11;;;;;;;29.42;5.72;;;;;;;11.19;100.00;100759.34;6084131;19;20013;-73
2023/11/19 03:18:14;;;;;;;33.95;6.90;;;;;;;11.19;100.00;100754.94;6084055;19;20007;-71
2023/11/19 03:20:23;;;;;;;35.08;7.15;;;;;;;11.18;100.00;100747.09;6084962;19;20319;-70
2023/11/19 03:22:25;;;;;;;47.78;6.38;;;;;;;11.19;100.00;100748.84;6084002;19;20684;-70
2023/11/19 03:24:30;;;;;;;31.35;6.93;;;;;;;11.17;100.00;100738.38;6083116;19;20010;-70
2023/11/19 03:26:37;;;;;;;42.63;6.45;;;;;;;11.16;100.00;100738.44;6086370;19;20507;-71
2023/11/19 03:28:41;;;;;;;41.60;7.25;;;;;;;11.20;100.00;100745.28;6084413;19;20019;-70
2023/11/19 03:30:47;;;;;;;40.90;7.18;;;;;;;11.18;100.00;100737.44;6087303;19;20388;-71
2023/11/19 03:32:49;;;;;;;27.50;6.43;;;;;;;11.13;100.00;100741.19;6082344;19;20010;-70
2023/11/19 03:34:55;;;;;;;32.38;6.40;;;;;;;11.16;100.00;100744.56;6081835;19;20006;-70
2023/11/19 03:37:03;;;;;;;43.35;6.78;;;;;;;11.15;100.00;100752.50;6084524;19;20013;-71
2023/11/19 03:39:08;;;;;;;33.17;5.95;;;;;;;11.13;100.00;100756.97;6078756;19;20013;-70
2023/11/19 03:41:14;;;;;;;40.97;7.30;;;;;;;11.16;100.00;100756.84;6084284;19;20019;-70
2023/11/19 03:43:19;;;;;;;39.28;6.82;;;;;;;11.15;100.00;100744.63;6084961;19;20018;-70
2023/11/19 03:45:27;;;;;;;32.72;6.28;;;;;;;11.16;100.00;100754.22;6085464;19;20031;-70
2023/11/19 03:47:32;;;;;;;39.35;6.40;;;;;;;11.10;100.00;100754.50;6084659;19;20010;-70
2023/11/19 03:49:37;;;;;;;28.90;5.80;;;;;;;11.06;100.00;100761.66;6087408;19;20082;-70
2023/11/19 03:51:42;;;;;;;25.80;7.55;;;;;;;11.01;100.00;100762.78;6088890;19;20015;-70
2023/11/19 03:53:50;;;;;;;33.70;5.40;;;;;;;11.01;100.00;100754.91;6078833;19;20161;-70
2023/11/19 03:55:56;;;;;;;23.60;5.20;;;;;;;11.01;100.00;100750.50;6083893;19;20014;-70
2023/11/19 03:58:01;;;;;;;29.08;5.63;;;;;;;10.97;100.00;100744.50;6086798;19;20005;-73
2023/11/19 04:00:09;;;;;;;21.88;5.95;;;;;;;11.03;100.00;100753.03;6086441;19;20014;-73
2023/11/19 04:02:14;;;;;;;38.45;6.40;;;;;;;10.99;100.00;100753.19;6084101;19;20463;-73
2023/11/19 04:04:19;;;;;;;31.02;5.32;;;;;;;10.99;100.00;100763.69;6083644;19;20027;-73
2023/11/19 04:06:24;;;;;;;36.60;6.53;;;;;;;10.98;100.00;100766.41;6085260;19;20024;-73
2023/11/19 04:08:30;;;;;;;36.85;5.57;;;;;;;11.00;100.00;100761.91;6084574;19;20019;-73
2023/11/19 04:10:41;;;;;;;34.03;6.55;;;;;;;11.01;100.00;100771.53;6079865;19;20580;-73
2023/11/19 04:12:46;;;;;;;33.53;7.07;;;;;;;11.04;100.00;100771.41;6081829;19;20049;-72
2023/11/19 04:14:50;;;;;;;30.52;6.07;;;;;;;11.02;100.00;100775.00;6083199;19;20026;-73
2023/11/19 04:17:05;;;;;;;25.23;6.60;;;;;;;11.04;100.00;100773.19;5984398;19;2004450;-70
2023/11/19 04:19:10;;;;;;;28.27;5.93;;;;;;;11.02;100.00;100756.59;6081076;19;20015;-70
2023/11/19 04:21:16;;;;;;;33.80;7.80;;;;;;;11.03;100.00;100755.66;6082600;19;20011;-70
2023/11/19 04:23:20;;;;;;;50.35;5.82;;;;;;;11.08;100.00;100759.81;6081451;19;20090;-70
2023/11/19 04:25:25;;;;;;;21.35;5.78;;;;;;;11.08;100.00;100775.56;6083231;19;20004;-73
2023/11/19 04:27:33;;;;;;;26.50;5.57;;;;;;;11.08;100.00;100775.56;6084620;19;20028;-72
2023/11/19 04:29:36;;;;;;;28.77;4.47;;;;;;;11.07;100.00;100775.66;6081769;19;20140;-72
2023/11/19 04:31:41;;;;;;;36.50;5.65;;;;;;;11.10;100.00;100788.69;6081509;19;20006;-72
2023/11/19 04:33:47;;;;;;;32.33;6.05;;;;;;;11.10;100.00;100776.38;6080053;19;20048;-70
2023/11/19 04:35:51;;;;;;;27.30;5.35;;;;;;;11.08;100.00;100778.22;6078551;19;20090;-70
2023/11/19 04:37:57;;;;;;;25.52;5.45;;;;;;;11.05;100.00;100774.88;6081767;19;20022;-70
2023/11/19 04:40:00;;;;;;;30.70;5.13;;;;;;;11.01;100.00;100778.56;6074748;19;20034;-71
2023/11/19 04:42:06;;;;;;;33.92;5.55;;;;;;;10.99;100.00;100779.47;6079691;19;20010;-70
2023/11/19 04:44:11;;;;;;;37.15;6.05;;;;;;;10.97;100.00;100775.19;6081361;19;20358;-70
2023/11/19 04:46:16;;;;;;;35.05;6.82;;;;;;;11.01;100.00;100765.44;6081537;19;20106;-70
2023/11/19 04:48:21;;;;;;;34.70;6.78;;;;;;;11.01;100.00;100771.53;6080960;19;20010;-70
2023/11/19 04:50:27;;;;;;;33.78;6.55;;;;;;;11.09;100.00;100773.84;6081463;19;20003;-72
2023/11/19 04:52:32;;;;;;;33.88;5.20;;;;;;;10.99;100.00;100768.97;6080422;19;20011;-69
2023/11/19 04:54:37;;;;;;;27.73;5.57;;;;;;;10.95;100.00;100772.66;6082475;19;20484;-69
2023/11/19 04:56:39;;;;;;;51.55;7.03;;;;;;;10.92;100.00;100771.91;6081997;19;20007;-69
2023/11/19 04:58:45;;;;;;;19.77;4.93;;;;;;;10.86;100.00;100775.66;6077332;19;20024;-72
2023/11/19 05:00:53;;;;;;;20.40;5.65;;;;;;;10.91;100.00;100770.22;6075950;19;20030;-69
2023/11/19 05:02:58;;;;;;;36.22;6.60;;;;;;;10.84;100.00;100776.66;6081638;19;20550;-69
2023/11/19 05:05:04;;;;;;;21.60;4.32;;;;;;;10.85;100.00;100776.59;6078369;19;20092;-70
2023/11/19 05:07:09;;;;;;;28.95;6.13;;;;;;;10.80;100.00;100773.31;6074906;19;20010;-70
2023/11/19 05:09:14;;;;;;;28.40;5.18;;;;;;;10.83;100.00;100780.22;6079366;19;20006;-73
2023/11/19 05:11:19;;;;;;;26.67;5.82;;;;;;;10.88;100.00;100783.50;6074125;19;20020;-73
2023/11/19 05:13:25;;;;;;;30.80;4.90;;;;;;;10.84;100.00;100777.50;6080644;19;20010;-72
2023/11/19 05:15:30;;;;;;;23.42;4.47;;;;;;;10.80;100.00;100778.56;6080601;19;20008;-72
2023/11/19 05:17:38;;;;;;;42.45;6.97;;;;;;;10.79;100.00;100792.59;6076122;19;20082;-72
2023/11/19 05:19:43;;;;;;;31.27;5.65;;;;;;;10.81;100.00;100788.16;6079674;19;20479;-73
2023/11/19 05:21:49;;;;;;;36.35;5.30;;;;;;;10.76;100.00;100792.75;6084664;19;20010;-73
2023/11/19 05:23:51;;;;;;;28.38;5.47;;;;;;;10.79;100.00;100792.59;6086438;19;20037;-78
2023/11/19 05:25:58;;;;;;;42.78;5.97;;;;;;;10.78;100.00;100793.53;6084604;19;20007;-73
2023/11/19 05:28:01;;;;;;;29.67;6.43;;;;;;;10.79;100.00;100782.09;6083705;19;20464;-73
2023/11/19 05:30:10;;;;;;;40.22;7.43;;;;;;;10.80;100.00;100781.19;6084676;19;20007;-73
2023/11/19 05:32:15;;;;;;;37.38;5.55;;;;;;;10.80;100.00;100783.81;6085791;19;20047;-73
2023/11/19 05:34:21;;;;;;;20.17;5.07;;;;;;;10.86;100.00;100785.34;6079849;19;20006;-71
2023/11/19 05:36:26;;;;;;;40.83;6.55;;;;;;;10.88;100.00;100786.13;6084850;19;20027;-70
2023/11/19 05:38:30;;;;;;;30.85;5.55;;;;;;;10.83;100.00;100781.06;6084518;19;20594;-71
2023/11/19 05:40:35;;;;;;;30.05;5.57;;;;;;;10.80;100.00;100782.97;6080672;19;20310;-70
2023/11/19 05:42:40;;;;;;;40.25;7.00;;;;;;;10.81;100.00;100780.25;6084194;19;20002;-70
2023/11/19 05:44:46;;;;;;;29.90;5.88;;;;;;;10.79;100.00;100789.97;6084086;19;20037;-72
2023/11/19 05:46:51;;;;;;;50.08;7.38;;;;;;;10.84;100.00;100789.78;6085505;19;20325;-70
2023/11/19 05:48:56;;;;;;;42.60;6.55;;;;;;;10.81;100.00;100779.41;6084667;19;20447;-70
2023/11/19 05:51:03;;;;;;;29.98;5.53;;;;;;;10.82;100.00;100789.88;6085392;19;20015;-70
2023/11/19 05:53:06;;;;;;;44.15;6.47;;;;;;;10.77;100.00;100779.53;6084223;19;20017;-70
2023/11/19 05:55:12;;;;;;;38.53;5.38;;;;;;;10.86;100.00;100785.34;6080815;19;20110;-72
2023/11/19 05:57:20;;;;;;;29.00;5.55;;;;;;;10.80;100.00;100788.22;6085407;19;20549;-71
2023/11/19 05:59:25;;;;;;;39.42;6.60;;;;;;;10.77;100.00;100784.81;6079411;19;20034;-71
2023/11/19 06:01:31;;;;;;;33.80;6.72;;;;;;;10.73;100.00;100790.25;6082465;19;20070;-71
2023/11/19 06:03:39;;;;;;;32.88;5.97;;;;;;;10.77;100.00;100781.31;6085036;19;20018;-71
2023/11/19 06:05:44;;;;;;;25.48;6.00;;;;;;;10.71;100.00;100789.44;6081293;19;20478;-71
2023/11/19 06:07:51;;;;;;;28.40;5.85;;;;;;;10.74;100.00;100784.06;6082831;19;20033;-71
2023/11/19 06:09:56;;;;;;;33.70;6.15;;;;;;;10.71;100.00;100782.41;6085241;19;20011;-71
2023/11/19 06:12:02;;;;;;;25.98;4.82;;;;;;;10.62;100.00;100789.84;6081613;19;20027;-71
2023/11/19 06:14:07;;;;;;;37.00;5.57;;;;;;;10.67;100.00;100777.38;6083278;19;20010;-71
2023/11/19 06:16:12;;;;;;;40.50;5.47;;;;;;;10.70;100.00;100771.97;6082009;19;20026;-71
2023/11/19 06:18:19;;;;;;;25.83;4.88;;;;;;;10.65;100.00;100769.53;6084590;19;20314;-71
2023/11/19 06:20:25;;;;;;;37.50;6.30;;;;;;;10.62;100.00;100779.34;6086394;19;20006;-71
2023/11/19 06:22:30;;;;;;;32.88;6.00;;;;;;;10.65;100.00;100781.84;6084726;19;20029;-71
2023/11/19 06:24:38;;;;;;;24.02;6.00;;;;;;;10.73;100.00;100788.47;6084032;19;20020;-71
2023/11/19 06:26:45;;;;;;;38.63;4.60;;;;;;;10.71;100.00;100784.19;6082035;19;20013;-72
2023/11/19 06:28:50;;;;;;;29.85;5.13;;;;;;;10.67;100.00;100787.88;6084063;19;20033;-72
2023/11/19 06:30:57;;;;;;;29.55;5.20;;;;;;;10.66;100.00;100779.13;6082993;19;20014;-70
2023/11/19 06:33:03;;;;;;;28.35;5.60;;;;;;;10.65;100.00;100790.56;6085730;19;20079;-69
2023/11/19 06:35:07;;;;;;;46.38;7.20;;;;;;;10.68;100.00;100794.84;6086193;19;20041;-72
2023/11/19 06:37:12;;;;;;;33.67;6.97;;;;;;;10.68;100.00;100800.94;6078158;19;20309;-72
2023/11/19 06:39:18;;;;;;;36.88;6.32;;;;;;;10.74;100.00;100790.19;6083758;19;20010;-73
2023/11/19 06:41:22;;;;;;;35.30;5.03;;;;;;;10.71;100.00;100792.06;6080453;19;20712;-74
2023/11/19 06:43:28;;;;;;;30.48;4.55;;;;;;;10.70;100.00;100793.84;6079100;19;20046;-73
2023/11/19 06:45:46;;;;;;;28.70;5.28;;;;;;;10.76;100.00;100801.47;6082254;19;20014;-74
2023/11/19 06:47:51;;;;;;;45.40;7.25;;;;;;;10.67;100.00;100799.25;6083076;19;20086;-74
2023/11/19 06:49:56;;;;;;;25.70;5.70;;;;;;;10.65;100.00;100816.00;6084874;19;20019;-73
2023/11/19 06:52:01;;;;;;;38.10;6.03;;;;;;;10.69;100.00;100815.81;6084616;19;20013;-75
2023/11/19 06:54:06;;;;;;;34.33;5.70;;;;;;;10.62;100.00;100821.38;6082827;19;20006;-73
2023/11/19 06:56:20;;;;;;;26.23;5.20;;;;;;;10.66;100.00;100830.84;6084187;19;20481;-71
2023/11/19 06:58:28;;;;;;;49.67;6.18;;;;;;;10.72;100.00;100813.06;6085148;19;20488;-71
2023/11/19 07:00:36;;;;;;;21.13;4.10;;;;;;;10.79;100.00;100821.53;6077165;19;20007;-71
2023/11/19 07:02:41;;;;;;;31.13;6.15;;;;;;;10.84;100.00;100818.72;6082359;19;20014;-72
2023/11/19 07:04:47;;;;;;;39.20;7.05;;;;;;;10.86;100.00;100820.34;6082923;19;20010;-73
2023/11/19 07:06:53;;;;;;;25.65;5.35;;;;;;;10.90;100.00;100814.06;6082130;19;20082;-73
2023/11/19 07:08:58;;;;;;;37.33;5.85;;;;;;;10.90;100.00;100824.56;6084311;19;20003;-74
2023/11/19 07:11:03;;;;;;;26.67;4.57;;;;;;;10.90;100.00;100815.81;6082133;19;20554;-71
2023/11/19 07:13:08;;;;;;;34.25;7.80;;;;;;;10.90;100.00;100814.06;6078930;19;20013;-74
2023/11/19 07:15:17;;;;;;;32.95;6.05;;;;;;;10.98;100.00;100808.47;6078855;19;20363;-73
2023/11/19 07:17:24;;;;;;;31.40;5.35;;;;;;;10.96;100.00;100816.41;6079097;19;20023;-74
2023/11/19 07:19:29;;;;;;;34.85;6.43;;;;;;;10.94;100.00;100815.63;6087566;19;20330;-74
2023/11/19 07:21:32;;;;;;;26.98;6.38;;;;;;;10.98;100.00;100796.19;6084068;19;20020;-74
2023/11/19 07:23:37;;;;;;;34.08;7.38;;;;;;;10.98;100.00;100798.81;6082675;19;20009;-74
2023/11/19 07:25:42;;;;;;;32.17;6.32;;;;;;;10.92;100.00;100809.56;6082438;19;20031;-71
2023/11/19 07:27:48;;;;;;;34.65;6.88;;;;;;;11.01;100.00;100800.47;6080983;19;20037;-70
2023/11/19 07:29:50;;;;;;;32.10;6.22;;;;;;;11.02;100.00;100799.53;6081285;19;20018;-74
2023/11/19 07:31:58;;;;;;;34.35;6.63;;;;;;;11.03;100.00;100803.84;6082667;19;20359;-71
2023/11/19 07:34:01;;;;;;;32.85;5.85;;;;;;;11.08;100.00;100808.91;6083276;19;20464;-69
2023/11/19 07:36:07;;;;;;;30.67;6.07;;;;;;;11.13;100.00;100817.47;6083249;19;20110;-69
2023/11/19 07:38:12;;;;;;;29.60;5.18;;;;;;;11.11;100.00;100808.78;6080379;19;20010;-70
2023/11/19 07:40:17;;;;;;;43.05;6.22;;;;;;;11.08;100.00;100814.19;6081708;19;20011;-74
2023/11/19 07:42:22;;;;;;;34.22;5.97;;;;;;;11.11;100.00;100806.16;6081431;19;20273;-73
2023/11/19 07:44:25;;;;;;;33.55;7.25;;;;;;;11.04;100.00;100804.72;6076769;19;20002;-73
2023/11/19 07:46:31;;;;;;;27.02;5.72;;;;;;;11.01;100.00;100802.25;6081423;19;20006;-70
2023/11/19 07:48:39;;;;;;;22.75;4.63;;;;;;;10.97;100.00;100804.97;6083043;19;20025;-71
2023/11/19 07:50:44;;;;;;;31.13;5.60;;;;;;;11.05;100.00;100806.44;6082842;19;20478;-71
2023/11/19 07:52:49;;;;;;;30.30;5.13;;;;;;;10.96;100.00;100800.66;6077830;19;20003;-72
2023/11/19 07:54:54;;;;;;;21.88;5.57;;;;;;;11.01;100.00;100812.75;6078427;19;20014;-71
2023/11/19 07:56:59;;;;;;;13.95;4.00;;;;;;;11.00;100.00;100801.34;6081125;19;20030;-70
2023/11/19 07:59:04;;;;;;;36.10;7.68;;;;;;;11.03;100.00;100810.88;6084661;19;20010;-71
2023/11/19 08:01:09;;;;;;;31.05;5.68;;;;;;;11.05;100.00;100806.44;6076283;19;20037;-71
2023/11/19 08:03:11;;;;;;;36.47;5.20;;;;;;;11.04;100.00;100808.22;6081268;19;20474;-71
2023/11/19 08:05:19;;;;;;;20.10;5.95;;;;;;;11.07;100.00;100817.75;6083657;19;20562;-71
2023/11/19 08:07:24;;;;;;;30.13;5.53;;;;;;;11.10;100.00;100817.59;6072878;19;20006;-71
2023/11/19 08:09:29;;;;;;;32.78;7.03;;;;;;;11.14;100.00;100819.19;6079273;19;20442;-71
2023/11/19 08:11:34;;;;;;;31.67;5.30;;;;;;;11.19;100.00;100820.69;6078570;19;20372;-71
2023/11/19 08:13:39;;;;;;;20.52;6.25;;;;;;;11.23;100.00;100823.19;6077539;19;20543;-71
2023/11/19 08:15:44;;;;;;;43.00;6.05;;;;;;;11.21;100.00;100821.47;6078456;19;20910;-71
2023/11/19 08:17:49;;;;;;;32.55;5.38;;;;;;;11.22;100.00;100814.47;6081436;19;20020;-72
2023/11/19 08:19:52;;;;;;;28.02;5.13;;;;;;;11.27;100.00;100815.09;6081520;19;20015;-72
2023/11/19 08:22:00;;;;;;;36.58;4.78;;;;;;;11.27;100.00;100814.22;6081510;19;20035;-74
2023/11/19 08:24:06;;;;;;;23.17;4.55;;;;;;;11.28;100.00;100822.06;6081300;19;20013;-72
2023/11/19 08:26:11;;;;;;;42.50;5.95;;;;;;;11.30;100.00;100824.66;6080673;19;20029;-74
2023/11/19 08:28:16;;;;;;;30.65;5.20;;;;;;;11.32;100.00;100823.66;6078951;19;20011;-72
2023/11/19 08:30:21;;;;;;;36.28;5.63;;;;;;;11.47;100.00;100831.78;6081921;19;20023;-74
2023/11/19 08:32:26;;;;;;;37.70;6.50;;;;;;;11.49;100.00;100829.94;6083196;19;20010;-76
2023/11/19 08:34:32;;;;;;;31.13;6.47;;;;;;;11.60;100.00;100817.16;6083365;19;20105;-75
2023/11/19 08:36:37;;;;;;;34.33;6.57;;;;;;;11.63;100.00;100830.16;6084293;19;20015;-75
2023/11/19 08:38:44;;;;;;;46.30;6.05;;;;;;;11.65;100.00;100815.16;6080781;19;20034;-74
2023/11/19 08:40:49;;;;;;;26.95;4.95;;;;;;;11.70;100.00;100823.72;6080900;19;20007;-73
2023/11/19 08:42:54;;;;;;;33.90;5.40;;;;;;;11.77;100.00;100827.78;6080550;19;20007;-72
2023/11/19 08:44:59;;;;;;;19.83;4.70;;;;;;;11.82;100.00;100823.16;6078962;19;20476;-72
2023/11/19 08:47:04;;;;;;;33.80;6.22;;;;;;;11.85;100.00;100814.28;6077709;19;20003;-75
2023/11/19 08:49:09;;;;;;;27.90;5.13;;;;;;;11.83;100.00;100814.31;6080117;19;20427;-74
2023/11/19 08:51:15;;;;;;;23.63;5.80;;;;;;;11.88;100.00;100815.94;6078220;19;20661;-74
2023/11/19 08:53:20;;;;;;;31.60;5.05;;;;;;;11.85;100.00;100827.44;6078280;19;20478;-71
2023/11/19 08:55:28;;;;;;;24.27;5.13;;;;;;;11.88;100.00;100810.66;6079000;19;20313;-73
2023/11/19 08:57:34;;;;;;;30.92;5.65;;;;;;;11.94;100.00;100824.41;6088328;19;20465;-75
2023/11/19 08:59:39;;;;;;;25.90;5.63;;;;;;;11.96;100.00;100819.06;6087118;19;20019;-73
2023/11/19 09:01:44;;;;;;;31.58;6.22;;;;;;;11.99;100.00;100811.03;6084084;19;20954;-72
2023/11/19 09:03:49;;;;;;;25.13;4.65;;;;;;;12.04;100.00;100827.47;6080336;19;20010;-75
2023/11/19 09:05:52;;;;;;;37.10;5.53;;;;;;;12.02;100.00;100813.50;6085719;19;20147;-75
2023/11/19 09:07:57;;;;;;;37.08;6.68;;;;;;;12.07;100.00;100817.63;6083876;19;20003;-70
2023/11/19 09:10:05;;;;;;;29.90;6.28;;;;;;;12.08;100.00;100815.84;6084913;19;20011;-70
2023/11/19 09:12:13;;;;;;;36.05;5.68;;;;;;;12.10;100.00;100826.31;6083197;19;20049;-73
2023/11/19 09:14:16;;;;;;;34.25;6.88;;;;;;;12.08;100.00;100818.47;6084503;19;20943;-73
2023/11/19 09:16:21;;;;;;;31.30;6.75;;;;;;;12.07;100.00;100816.78;6079246;19;20028;-73
2023/11/19 09:18:26;;;;;;;26.02;5.85;;;;;;;12.08;100.00;100815.84;6083689;19;20097;-73
2023/11/19 09:20:37;;;;;;;40.85;6.20;;;;;;;12.10;100.00;100821.91;6084483;19;20495;-74
2023/11/19 09:22:42;;;;;;;33.92;6.13;;;;;;;12.14;100.00;100817.31;6081178;19;20489;-73
2023/11/19 09:24:48;;;;;;;38.13;6.82;;;;;;;12.25;100.00;100818.53;6085193;19;20442;-73
2023/11/19 09:26:54;;;;;;;37.92;7.63;;;;;;;12.29;100.00;100809.53;6082490;19;20042;-71
2023/11/19 09:29:02;;;;;;;25.15;5.20;;;;;;;12.27;100.00;100824.59;6084509;19;20017;-71
2023/11/19 09:31:15;;;;;;;36.05;5.57;;;;;;;12.24;100.00;100819.47;6084104;19;20371;-71